sensor_id;sensor_type;location;lat;lon;timestamp;pressure;altitude;pressure_sealevel;temperature;humidity
58245;BME280;44550;43.864;25.986;2023-06-14T01:22:15;100773.28;;;17.70;91.86
58245;BME280;44550;43.864;25.986;2023-06-14T02:05:34;100792.75;;;18.06;88.58
58245;BME280;44550;43.864;25.986;2023-06-14T02:10:34;100788.31;;;18.08;88.62
58245;BME280;44550;43.864;25.986;2023-06-14T02:15:05;100790.81;;;18.15;88.14
58245;BME280;44550;43.864;25.986;2023-06-14T02:19:45;100803.00;;;18.22;87.77
58245;BME280;44550;43.864;25.986;2023-06-14T02:24:53;100803.50;;;18.38;86.80
58245;BME280;44550;43.864;25.986;2023-06-14T02:55:16;100836.78;;;18.48;84.96
58245;BME280;44550;43.864;25.986;2023-06-14T03:09:04;100838.78;;;18.38;85.44
58245;BME280;44550;43.864;25.986;2023-06-14T03:17:08;100843.59;;;18.21;86.01
58245;BME280;44550;43.864;25.986;2023-06-14T17:43:03;100807.41;;;28.79;46.38
58245;BME280;44550;43.864;25.986;2023-06-14T17:47:06;100801.88;;;28.28;46.84
58245;BME280;44550;43.864;25.986;2023-06-14T17:51:32;100811.53;;;28.03;47.77
58245;BME280;44550;43.864;25.986;2023-06-14T17:55:32;100812.34;;;27.77;47.60
58245;BME280;44550;43.864;25.986;2023-06-14T17:59:43;100814.16;;;27.48;47.73
58245;BME280;44550;43.864;25.986;2023-06-14T18:03:48;100812.53;;;27.31;48.05
58245;BME280;44550;43.864;25.986;2023-06-14T18:07:50;100813.66;;;27.12;48.28
58245;BME280;44550;43.864;25.986;2023-06-14T18:11:52;100808.34;;;26.97;48.92
58245;BME280;44550;43.864;25.986;2023-06-14T18:15:56;100819.34;;;26.92;48.74
58245;BME280;44550;43.864;25.986;2023-06-14T18:55:10;100862.28;;;26.46;51.53
58245;BME280;44550;43.864;25.986;2023-06-14T18:59:11;100859.53;;;26.47;51.21
58245;BME280;44550;43.864;25.986;2023-06-14T19:03:12;100865.81;;;26.46;51.65
58245;BME280;44550;43.864;25.986;2023-06-14T19:07:14;100864.53;;;26.54;52.00
58245;BME280;44550;43.864;25.986;2023-06-14T19:11:17;100871.53;;;26.40;52.45
58245;BME280;44550;43.864;25.986;2023-06-14T19:15:19;100871.19;;;26.31;53.01
58245;BME280;44550;43.864;25.986;2023-06-14T19:19:21;100881.22;;;26.27;53.39
58245;BME280;44550;43.864;25.986;2023-06-14T19:23:22;100884.94;;;26.40;52.58
58245;BME280;44550;43.864;25.986;2023-06-14T19:27:28;100891.25;;;26.39;52.97
58245;BME280;44550;43.864;25.986;2023-06-14T19:31:36;100886.78;;;26.56;52.20
58245;BME280;44550;43.864;25.986;2023-06-14T19:35:42;100894.53;;;26.76;51.59
58245;BME280;44550;43.864;25.986;2023-06-14T19:39:46;100888.56;;;26.39;52.45
58245;BME280;44550;43.864;25.986;2023-06-14T19:43:49;100885.63;;;26.28;53.09
58245;BME280;44550;43.864;25.986;2023-06-14T19:47:49;100887.69;;;26.07;53.35
58245;BME280;44550;43.864;25.986;2023-06-14T19:52:03;100880.84;;;26.01;53.72
58245;BME280;44550;43.864;25.986;2023-06-14T19:56:04;100889.59;;;26.05;53.86
58245;BME280;44550;43.864;25.986;2023-06-14T20:00:08;100885.25;;;26.02;54.14
58245;BME280;44550;43.864;25.986;2023-06-14T20:04:11;100881.66;;;26.04;53.82
58245;BME280;44550;43.864;25.986;2023-06-14T20:08:12;100882.25;;;26.24;53.51
58245;BME280;44550;43.864;25.986;2023-06-14T20:12:18;100895.22;;;26.64;52.56
58245;BME280;44550;43.864;25.986;2023-06-14T20:16:24;100883.66;;;26.93;51.55
58245;BME280;44550;43.864;25.986;2023-06-14T20:20:23;100884.56;;;27.08;51.17
58245;BME280;44550;43.864;25.986;2023-06-14T20:24:27;100888.50;;;27.03;50.86
58245;BME280;44550;43.864;25.986;2023-06-14T20:28:27;100886.53;;;26.90;51.46
58245;BME280;44550;43.864;25.986;2023-06-14T20:32:30;100887.38;;;26.61;52.10
58245;BME280;44550;43.864;25.986;2023-06-14T20:36:31;100879.16;;;26.16;53.94
58245;BME280;44550;43.864;25.986;2023-06-14T20:40:32;100881.31;;;25.76;55.38
58245;BME280;44550;43.864;25.986;2023-06-14T20:44:34;100876.63;;;25.64;56.49
58245;BME280;44550;43.864;25.986;2023-06-14T20:48:40;100879.09;;;25.85;55.94
58245;BME280;44550;43.864;25.986;2023-06-14T20:52:41;100881.13;;;25.97;55.44
58245;BME280;44550;43.864;25.986;2023-06-14T20:56:42;100883.97;;;25.94;55.72
58245;BME280;44550;43.864;25.986;2023-06-14T21:00:41;100880.59;;;25.90;55.80
58245;BME280;44550;43.864;25.986;2023-06-14T21:04:47;100885.84;;;25.59;57.07
58245;BME280;44550;43.864;25.986;2023-06-14T21:08:47;100897.91;;;25.50;57.79
58245;BME280;44550;43.864;25.986;2023-06-14T21:12:49;100896.09;;;25.50;57.86
58245;BME280;44550;43.864;25.986;2023-06-14T21:16:54;100885.50;;;25.65;57.10
58245;BME280;44550;43.864;25.986;2023-06-14T21:20:57;100899.31;;;25.57;56.92
58245;BME280;44550;43.864;25.986;2023-06-14T21:24:57;100893.66;;;25.46;56.26
58245;BME280;44550;43.864;25.986;2023-06-14T21:28:57;100877.88;;;25.24;56.59
58245;BME280;44550;43.864;25.986;2023-06-14T21:32:57;100890.59;;;25.36;57.03
58245;BME280;44550;43.864;25.986;2023-06-14T21:37:01;100884.72;;;25.63;56.63
58245;BME280;44550;43.864;25.986;2023-06-14T21:41:03;100885.72;;;25.77;55.81
58245;BME280;44550;43.864;25.986;2023-06-14T21:45:04;100887.22;;;25.50;56.23
58245;BME280;44550;43.864;25.986;2023-06-14T21:49:08;100878.63;;;25.26;57.20
58245;BME280;44550;43.864;25.986;2023-06-14T21:53:11;100881.41;;;25.24;57.39
58245;BME280;44550;43.864;25.986;2023-06-14T21:57:12;100875.63;;;24.97;58.08
58245;BME280;44550;43.864;25.986;2023-06-14T22:01:13;100867.28;;;24.69;59.33
58245;BME280;44550;43.864;25.986;2023-06-14T22:05:13;100865.72;;;24.46;60.81
58245;BME280;44550;43.864;25.986;2023-06-14T22:09:17;100863.47;;;24.36;61.34
58245;BME280;44550;43.864;25.986;2023-06-14T22:13:20;100866.00;;;24.39;61.17
58245;BME280;44550;43.864;25.986;2023-06-14T22:17:24;100861.56;;;24.21;60.97
58245;BME280;44550;43.864;25.986;2023-06-14T22:21:26;100870.81;;;23.95;62.05
58245;BME280;44550;43.864;25.986;2023-06-14T22:25:32;100872.50;;;23.77;63.63
58245;BME280;44550;43.864;25.986;2023-06-14T22:29:33;100870.00;;;23.74;63.82
58245;BME280;44550;43.864;25.986;2023-06-14T22:33:34;100865.22;;;23.60;64.47
58245;BME280;44550;43.864;25.986;2023-06-14T22:37:39;100863.94;;;23.30;66.28
58245;BME280;44550;43.864;25.986;2023-06-14T22:41:42;100869.50;;;23.25;66.66
58245;BME280;44550;43.864;25.986;2023-06-14T22:45:44;100869.94;;;23.14;66.94
58245;BME280;44550;43.864;25.986;2023-06-14T22:49:51;100855.22;;;23.06;67.37
58245;BME280;44550;43.864;25.986;2023-06-14T22:54:05;100867.69;;;23.05;67.31
58245;BME280;44550;43.864;25.986;2023-06-14T22:58:07;100862.66;;;22.97;67.82
58245;BME280;44550;43.864;25.986;2023-06-14T23:02:12;100855.06;;;22.66;69.16
58245;BME280;44550;43.864;25.986;2023-06-14T23:06:27;100856.13;;;22.62;69.37
58245;BME280;44550;43.864;25.986;2023-06-14T23:10:31;100858.09;;;22.57;69.62
58245;BME280;44550;43.864;25.986;2023-06-14T23:14:36;100847.91;;;22.46;70.08
58245;BME280;44550;43.864;25.986;2023-06-14T23:18:38;100843.19;;;22.53;69.74
58245;BME280;44550;43.864;25.986;2023-06-14T23:27:12;100846.81;;;22.72;69.83
58245;BME280;44550;43.864;25.986;2023-06-14T23:31:17;100849.63;;;22.90;68.37
58245;BME280;44550;43.864;25.986;2023-06-14T23:35:18;100843.66;;;22.85;68.47
58245;BME280;44550;43.864;25.986;2023-06-14T23:39:21;100847.47;;;22.78;68.83
58245;BME280;44550;43.864;25.986;2023-06-14T23:43:55;100844.19;;;22.71;68.76
58245;BME280;44550;43.864;25.986;2023-06-14T23:48:01;100853.25;;;22.89;68.66
58245;BME280;44550;43.864;25.986;2023-06-14T23:52:00;100852.00;;;22.97;68.53
58245;BME280;44550;43.864;25.986;2023-06-14T23:56:28;100860.75;;;23.21;67.23
